sensor_id;sensor_type;location;lat;lon;timestamp;P1;durP1;ratioP1;P2;durP2;ratioP2
45252;SDS011;63171;50.520;30.486;2022-11-20T01:02:08;26.13;;;17.60;;
45252;SDS011;63171;50.520;30.486;2022-11-20T01:02:58;24.52;;;17.90;;
45252;SDS011;63171;50.520;30.486;2022-11-20T01:03:49;25.20;;;17.75;;
45252;SDS011;63171;50.520;30.486;2022-11-20T01:04:41;23.70;;;17.90;;
45252;SDS011;63171;50.520;30.486;2022-11-20T01:05:33;23.35;;;18.00;;
45252;SDS011;63171;50.520;30.486;2022-11-20T01:06:25;25.73;;;19.27;;
45252;SDS011;63171;50.520;30.486;2022-11-20T01:07:16;28.10;;;18.75;;
45252;SDS011;63171;50.520;30.486;2022-11-20T01:08:07;27.63;;;20.50;;
45252;SDS011;63171;50.520;30.486;2022-11-20T01:08:58;29.73;;;22.63;;
45252;SDS011;63171;50.520;30.486;2022-11-20T01:09:50;29.05;;;20.85;;
45252;SDS011;63171;50.520;30.486;2022-11-20T01:10:39;34.85;;;23.05;;
45252;SDS011;63171;50.520;30.486;2022-11-20T01:11:30;30.95;;;22.40;;
45252;SDS011;63171;50.520;30.486;2022-11-20T01:12:22;28.98;;;20.17;;
45252;SDS011;63171;50.520;30.486;2022-11-20T01:13:11;30.85;;;21.83;;
45252;SDS011;63171;50.520;30.486;2022-11-20T01:14:20;32.38;;;22.40;;
45252;SDS011;63171;50.520;30.486;2022-11-20T01:15:11;31.30;;;21.45;;
45252;SDS011;63171;50.520;30.486;2022-11-20T01:16:02;30.73;;;22.98;;
45252;SDS011;63171;50.520;30.486;2022-11-20T01:16:52;33.90;;;22.40;;
45252;SDS011;63171;50.520;30.486;2022-11-20T01:17:44;32.55;;;22.58;;
45252;SDS011;63171;50.520;30.486;2022-11-20T01:18:34;34.13;;;22.92;;
45252;SDS011;63171;50.520;30.486;2022-11-20T01:19:24;33.78;;;23.70;;
45252;SDS011;63171;50.520;30.486;2022-11-20T01:20:15;27.73;;;22.30;;
45252;SDS011;63171;50.520;30.486;2022-11-20T01:21:05;31.77;;;23.17;;
45252;SDS011;63171;50.520;30.486;2022-11-20T01:21:56;31.35;;;23.55;;
45252;SDS011;63171;50.520;30.486;2022-11-20T01:22:47;32.80;;;22.40;;
45252;SDS011;63171;50.520;30.486;2022-11-20T01:23:38;34.28;;;25.33;;
45252;SDS011;63171;50.520;30.486;2022-11-20T01:24:30;29.88;;;22.15;;
45252;SDS011;63171;50.520;30.486;2022-11-20T01:25:20;29.15;;;21.70;;
45252;SDS011;63171;50.520;30.486;2022-11-20T01:26:12;34.13;;;24.20;;
45252;SDS011;63171;50.520;30.486;2022-11-20T01:27:03;31.25;;;23.73;;
45252;SDS011;63171;50.520;30.486;2022-11-20T01:27:53;31.05;;;22.92;;
45252;SDS011;63171;50.520;30.486;2022-11-20T01:28:43;34.90;;;22.90;;
45252;SDS011;63171;50.520;30.486;2022-11-20T01:29:35;32.92;;;22.95;;
45252;SDS011;63171;50.520;30.486;2022-11-20T01:30:24;29.17;;;24.15;;
45252;SDS011;63171;50.520;30.486;2022-11-20T01:31:16;35.33;;;24.35;;
45252;SDS011;63171;50.520;30.486;2022-11-20T01:32:07;32.85;;;23.25;;
45252;SDS011;63171;50.520;30.486;2022-11-20T01:32:59;30.45;;;22.50;;
45252;SDS011;63171;50.520;30.486;2022-11-20T01:33:50;29.55;;;21.60;;
45252;SDS011;63171;50.520;30.486;2022-11-20T01:34:42;33.33;;;24.42;;
45252;SDS011;63171;50.520;30.486;2022-11-20T01:35:32;28.33;;;22.98;;
45252;SDS011;63171;50.520;30.486;2022-11-20T01:36:24;31.23;;;22.30;;
45252;SDS011;63171;50.520;30.486;2022-11-20T01:37:14;31.02;;;23.48;;
45252;SDS011;63171;50.520;30.486;2022-11-20T01:38:04;33.00;;;24.45;;
45252;SDS011;63171;50.520;30.486;2022-11-20T01:38:55;33.72;;;25.77;;
45252;SDS011;63171;50.520;30.486;2022-11-20T01:39:46;30.58;;;23.20;;
45252;SDS011;63171;50.520;30.486;2022-11-20T01:40:36;33.55;;;25.27;;
45252;SDS011;63171;50.520;30.486;2022-11-20T01:41:27;33.72;;;23.63;;
45252;SDS011;63171;50.520;30.486;2022-11-20T01:42:36;27.88;;;21.98;;
45252;SDS011;63171;50.520;30.486;2022-11-20T01:43:49;28.70;;;22.08;;
45252;SDS011;63171;50.520;30.486;2022-11-20T01:44:47;31.75;;;22.83;;
45252;SDS011;63171;50.520;30.486;2022-11-20T01:45:50;34.50;;;23.60;;
45252;SDS011;63171;50.520;30.486;2022-11-20T01:46:49;33.75;;;23.30;;
45252;SDS011;63171;50.520;30.486;2022-11-20T01:47:46;32.83;;;23.98;;
45252;SDS011;63171;50.520;30.486;2022-11-20T01:48:38;31.65;;;21.95;;
45252;SDS011;63171;50.520;30.486;2022-11-20T01:49:33;31.55;;;22.55;;
45252;SDS011;63171;50.520;30.486;2022-11-20T01:50:27;33.40;;;23.30;;
45252;SDS011;63171;50.520;30.486;2022-11-20T01:51:21;33.70;;;22.95;;
45252;SDS011;63171;50.520;30.486;2022-11-20T01:52:15;31.33;;;22.90;;
45252;SDS011;63171;50.520;30.486;2022-11-20T01:53:09;31.83;;;23.70;;
45252;SDS011;63171;50.520;30.486;2022-11-20T01:54:04;32.00;;;23.83;;
45252;SDS011;63171;50.520;30.486;2022-11-20T01:55:00;32.50;;;23.90;;
45252;SDS011;63171;50.520;30.486;2022-11-20T01:55:53;32.78;;;23.88;;
45252;SDS011;63171;50.520;30.486;2022-11-20T01:56:46;35.13;;;24.83;;
45252;SDS011;63171;50.520;30.486;2022-11-20T01:57:41;34.47;;;24.90;;
45252;SDS011;63171;50.520;30.486;2022-11-20T01:58:35;33.08;;;25.98;;
45252;SDS011;63171;50.520;30.486;2022-11-20T01:59:26;34.47;;;24.55;;
45252;SDS011;63171;50.520;30.486;2022-11-20T02:00:20;34.25;;;25.20;;
45252;SDS011;63171;50.520;30.486;2022-11-20T02:01:10;38.42;;;27.13;;
45252;SDS011;63171;50.520;30.486;2022-11-20T02:02:01;34.03;;;24.10;;
45252;SDS011;63171;50.520;30.486;2022-11-20T02:02:51;32.25;;;25.00;;
45252;SDS011;63171;50.520;30.486;2022-11-20T02:03:48;31.05;;;24.15;;
45252;SDS011;63171;50.520;30.486;2022-11-20T02:04:39;34.05;;;25.33;;
45252;SDS011;63171;50.520;30.486;2022-11-20T02:05:31;39.25;;;27.27;;
45252;SDS011;63171;50.520;30.486;2022-11-20T02:06:25;40.38;;;26.88;;
45252;SDS011;63171;50.520;30.486;2022-11-20T02:07:19;40.25;;;27.02;;
45252;SDS011;63171;50.520;30.486;2022-11-20T02:08:10;33.83;;;25.75;;
45252;SDS011;63171;50.520;30.486;2022-11-20T02:09:01;35.47;;;26.00;;
45252;SDS011;63171;50.520;30.486;2022-11-20T02:09:51;40.80;;;27.00;;
45252;SDS011;63171;50.520;30.486;2022-11-20T02:10:42;43.75;;;28.25;;
45252;SDS011;63171;50.520;30.486;2022-11-20T02:11:32;39.90;;;27.38;;
45252;SDS011;63171;50.520;30.486;2022-11-20T02:12:22;39.42;;;27.25;;
45252;SDS011;63171;50.520;30.486;2022-11-20T02:13:31;36.45;;;26.35;;
45252;SDS011;63171;50.520;30.486;2022-11-20T02:14:33;37.00;;;25.55;;
45252;SDS011;63171;50.520;30.486;2022-11-20T02:15:22;36.13;;;25.95;;
45252;SDS011;63171;50.520;30.486;2022-11-20T02:16:14;38.03;;;28.02;;
45252;SDS011;63171;50.520;30.486;2022-11-20T02:17:07;41.08;;;28.98;;
45252;SDS011;63171;50.520;30.486;2022-11-20T02:17:58;38.40;;;28.77;;
45252;SDS011;63171;50.520;30.486;2022-11-20T02:18:50;41.53;;;28.83;;
45252;SDS011;63171;50.520;30.486;2022-11-20T02:19:42;35.95;;;26.67;;
45252;SDS011;63171;50.520;30.486;2022-11-20T02:20:32;37.60;;;27.85;;
45252;SDS011;63171;50.520;30.486;2022-11-20T02:21:27;33.95;;;25.00;;
45252;SDS011;63171;50.520;30.486;2022-11-20T02:22:24;36.78;;;26.17;;
45252;SDS011;63171;50.520;30.486;2022-11-20T02:23:21;42.65;;;28.05;;
45252;SDS011;63171;50.520;30.486;2022-11-20T02:24:18;34.83;;;28.00;;
45252;SDS011;63171;50.520;30.486;2022-11-20T02:25:10;34.90;;;25.48;;
45252;SDS011;63171;50.520;30.486;2022-11-20T02:26:01;35.30;;;25.15;;
45252;SDS011;63171;50.520;30.486;2022-11-20T02:26:56;33.45;;;25.48;;
45252;SDS011;63171;50.520;30.486;2022-11-20T02:27:50;32.00;;;24.17;;
45252;SDS011;63171;50.520;30.486;2022-11-20T02:29:31;31.63;;;24.33;;
45252;SDS011;63171;50.520;30.486;2022-11-20T02:30:24;30.77;;;23.88;;
45252;SDS011;63171;50.520;30.486;2022-11-20T02:31:15;34.95;;;24.05;;
45252;SDS011;63171;50.520;30.486;2022-11-20T02:32:05;36.72;;;23.83;;
45252;SDS011;63171;50.520;30.486;2022-11-20T02:32:57;33.15;;;25.70;;
45252;SDS011;63171;50.520;30.486;2022-11-20T02:33:47;34.45;;;24.40;;
45252;SDS011;63171;50.520;30.486;2022-11-20T02:34:36;33.75;;;24.67;;
45252;SDS011;63171;50.520;30.486;2022-11-20T02:35:41;36.47;;;26.02;;
45252;SDS011;63171;50.520;30.486;2022-11-20T02:36:32;32.78;;;24.77;;
45252;SDS011;63171;50.520;30.486;2022-11-20T02:37:26;39.10;;;26.27;;
45252;SDS011;63171;50.520;30.486;2022-11-20T02:38:21;31.55;;;23.33;;
45252;SDS011;63171;50.520;30.486;2022-11-20T02:39:12;32.53;;;24.52;;
45252;SDS011;63171;50.520;30.486;2022-11-20T02:40:04;34.78;;;26.88;;
45252;SDS011;63171;50.520;30.486;2022-11-20T02:40:56;30.38;;;23.33;;
45252;SDS011;63171;50.520;30.486;2022-11-20T02:41:46;32.17;;;23.65;;
45252;SDS011;63171;50.520;30.486;2022-11-20T02:42:36;33.55;;;25.70;;
45252;SDS011;63171;50.520;30.486;2022-11-20T02:43:26;35.80;;;25.23;;
45252;SDS011;63171;50.520;30.486;2022-11-20T02:44:17;34.75;;;25.98;;
45252;SDS011;63171;50.520;30.486;2022-11-20T02:45:07;35.25;;;24.83;;
45252;SDS011;63171;50.520;30.486;2022-11-20T02:45:59;36.22;;;25.45;;
45252;SDS011;63171;50.520;30.486;2022-11-20T02:46:48;34.67;;;25.27;;
45252;SDS011;63171;50.520;30.486;2022-11-20T02:47:39;37.45;;;27.20;;
45252;SDS011;63171;50.520;30.486;2022-11-20T02:48:29;37.25;;;26.25;;
45252;SDS011;63171;50.520;30.486;2022-11-20T02:49:19;32.33;;;25.30;;
45252;SDS011;63171;50.520;30.486;2022-11-20T02:50:09;34.13;;;25.10;;
45252;SDS011;63171;50.520;30.486;2022-11-20T02:51:00;39.40;;;26.80;;
45252;SDS011;63171;50.520;30.486;2022-11-20T02:51:50;34.22;;;25.65;;
45252;SDS011;63171;50.520;30.486;2022-11-20T02:52:40;36.65;;;25.70;;
45252;SDS011;63171;50.520;30.486;2022-11-20T02:53:30;36.38;;;25.73;;
45252;SDS011;63171;50.520;30.486;2022-11-20T02:54:20;32.55;;;23.98;;
45252;SDS011;63171;50.520;30.486;2022-11-20T02:55:12;36.08;;;26.05;;
45252;SDS011;63171;50.520;30.486;2022-11-20T02:56:02;37.22;;;28.15;;
45252;SDS011;63171;50.520;30.486;2022-11-20T02:56:53;39.78;;;27.98;;
45252;SDS011;63171;50.520;30.486;2022-11-20T02:57:43;34.80;;;24.92;;
45252;SDS011;63171;50.520;30.486;2022-11-20T02:58:34;39.70;;;25.95;;
45252;SDS011;63171;50.520;30.486;2022-11-20T02:59:24;40.03;;;26.58;;
45252;SDS011;63171;50.520;30.486;2022-11-20T03:00:15;34.80;;;25.48;;
45252;SDS011;63171;50.520;30.486;2022-11-20T03:01:04;32.03;;;22.90;;
45252;SDS011;63171;50.520;30.486;2022-11-20T03:01:55;39.92;;;24.98;;
45252;SDS011;63171;50.520;30.486;2022-11-20T03:02:45;38.42;;;27.40;;
45252;SDS011;63171;50.520;30.486;2022-11-20T03:03:37;34.63;;;24.55;;
45252;SDS011;63171;50.520;30.486;2022-11-20T03:04:26;33.90;;;22.27;;
45252;SDS011;63171;50.520;30.486;2022-11-20T03:05:17;32.95;;;23.30;;
45252;SDS011;63171;50.520;30.486;2022-11-20T03:06:06;32.50;;;24.10;;
45252;SDS011;63171;50.520;30.486;2022-11-20T03:06:57;35.85;;;24.75;;
45252;SDS011;63171;50.520;30.486;2022-11-20T03:07:47;31.27;;;23.50;;
45252;SDS011;63171;50.520;30.486;2022-11-20T03:08:38;33.70;;;23.30;;
45252;SDS011;63171;50.520;30.486;2022-11-20T03:09:27;32.38;;;24.17;;
45252;SDS011;63171;50.520;30.486;2022-11-20T03:10:19;32.13;;;23.48;;
45252;SDS011;63171;50.520;30.486;2022-11-20T03:11:09;34.53;;;25.63;;
45252;SDS011;63171;50.520;30.486;2022-11-20T03:12:00;34.30;;;24.60;;
45252;SDS011;63171;50.520;30.486;2022-11-20T03:12:52;32.22;;;22.88;;
45252;SDS011;63171;50.520;30.486;2022-11-20T03:13:44;34.30;;;23.45;;
45252;SDS011;63171;50.520;30.486;2022-11-20T03:14:34;34.10;;;23.70;;
45252;SDS011;63171;50.520;30.486;2022-11-20T03:15:24;33.83;;;22.25;;
45252;SDS011;63171;50.520;30.486;2022-11-20T03:16:15;31.50;;;23.85;;
45252;SDS011;63171;50.520;30.486;2022-11-20T03:17:07;33.60;;;22.85;;
45252;SDS011;63171;50.520;30.486;2022-11-20T03:17:58;30.77;;;22.80;;
45252;SDS011;63171;50.520;30.486;2022-11-20T03:18:48;29.40;;;23.75;;
45252;SDS011;63171;50.520;30.486;2022-11-20T03:19:39;28.63;;;21.23;;
45252;SDS011;63171;50.520;30.486;2022-11-20T03:20:29;24.52;;;19.55;;
45252;SDS011;63171;50.520;30.486;2022-11-20T03:21:22;31.73;;;21.70;;
45252;SDS011;63171;50.520;30.486;2022-11-20T03:22:11;32.70;;;23.95;;
45252;SDS011;63171;50.520;30.486;2022-11-20T03:23:02;29.38;;;22.38;;
45252;SDS011;63171;50.520;30.486;2022-11-20T03:23:52;30.08;;;22.60;;
45252;SDS011;63171;50.520;30.486;2022-11-20T03:24:43;31.02;;;21.98;;
45252;SDS011;63171;50.520;30.486;2022-11-20T03:25:34;33.03;;;23.30;;
45252;SDS011;63171;50.520;30.486;2022-11-20T03:26:25;32.28;;;23.58;;
45252;SDS011;63171;50.520;30.486;2022-11-20T03:27:16;30.92;;;23.33;;
45252;SDS011;63171;50.520;30.486;2022-11-20T03:28:06;32.65;;;23.42;;
45252;SDS011;63171;50.520;30.486;2022-11-20T03:28:57;35.47;;;25.08;;
45252;SDS011;63171;50.520;30.486;2022-11-20T03:29:48;34.90;;;24.00;;
45252;SDS011;63171;50.520;30.486;2022-11-20T03:30:38;29.98;;;21.00;;
45252;SDS011;63171;50.520;30.486;2022-11-20T03:31:30;30.38;;;22.13;;
45252;SDS011;63171;50.520;30.486;2022-11-20T03:32:21;30.25;;;23.02;;
45252;SDS011;63171;50.520;30.486;2022-11-20T03:33:12;27.70;;;21.23;;
45252;SDS011;63171;50.520;30.486;2022-11-20T03:34:02;28.23;;;20.50;;
45252;SDS011;63171;50.520;30.486;2022-11-20T03:34:53;30.40;;;21.40;;
45252;SDS011;63171;50.520;30.486;2022-11-20T03:35:43;27.85;;;21.80;;
45252;SDS011;63171;50.520;30.486;2022-11-20T03:36:34;25.85;;;19.80;;
45252;SDS011;63171;50.520;30.486;2022-11-20T03:37:24;25.02;;;19.70;;
45252;SDS011;63171;50.520;30.486;2022-11-20T03:38:14;28.50;;;20.88;;
45252;SDS011;63171;50.520;30.486;2022-11-20T03:39:04;39.50;;;23.83;;
45252;SDS011;63171;50.520;30.486;2022-11-20T03:39:55;35.10;;;24.60;;
45252;SDS011;63171;50.520;30.486;2022-11-20T03:40:47;37.83;;;27.60;;
45252;SDS011;63171;50.520;30.486;2022-11-20T03:41:38;39.88;;;27.15;;
45252;SDS011;63171;50.520;30.486;2022-11-20T03:42:30;33.70;;;27.65;;
45252;SDS011;63171;50.520;30.486;2022-11-20T03:43:36;37.33;;;27.73;;
45252;SDS011;63171;50.520;30.486;2022-11-20T03:44:26;34.83;;;28.08;;
45252;SDS011;63171;50.520;30.486;2022-11-20T03:45:17;37.38;;;29.40;;
45252;SDS011;63171;50.520;30.486;2022-11-20T03:46:07;36.97;;;28.23;;
45252;SDS011;63171;50.520;30.486;2022-11-20T03:46:58;38.08;;;30.55;;
45252;SDS011;63171;50.520;30.486;2022-11-20T03:47:48;45.08;;;32.20;;
45252;SDS011;63171;50.520;30.486;2022-11-20T03:48:39;41.63;;;31.10;;
45252;SDS011;63171;50.520;30.486;2022-11-20T03:49:29;35.78;;;26.75;;
45252;SDS011;63171;50.520;30.486;2022-11-20T03:50:20;40.70;;;30.10;;
45252;SDS011;63171;50.520;30.486;2022-11-20T03:51:10;41.15;;;29.58;;
45252;SDS011;63171;50.520;30.486;2022-11-20T03:52:02;41.80;;;30.40;;
45252;SDS011;63171;50.520;30.486;2022-11-20T03:52:52;43.00;;;31.67;;
45252;SDS011;63171;50.520;30.486;2022-11-20T03:53:44;40.53;;;32.38;;
45252;SDS011;63171;50.520;30.486;2022-11-20T03:54:35;41.72;;;32.30;;
45252;SDS011;63171;50.520;30.486;2022-11-20T03:55:26;39.13;;;30.27;;
45252;SDS011;63171;50.520;30.486;2022-11-20T03:56:18;43.58;;;30.90;;
45252;SDS011;63171;50.520;30.486;2022-11-20T03:57:10;39.58;;;29.85;;
45252;SDS011;63171;50.520;30.486;2022-11-20T03:58:00;42.88;;;28.63;;
45252;SDS011;63171;50.520;30.486;2022-11-20T03:59:39;46.20;;;27.77;;
45252;SDS011;63171;50.520;30.486;2022-11-20T04:00:30;40.92;;;29.90;;
45252;SDS011;63171;50.520;30.486;2022-11-20T04:01:20;41.70;;;30.50;;
45252;SDS011;63171;50.520;30.486;2022-11-20T04:02:12;40.90;;;30.50;;
45252;SDS011;63171;50.520;30.486;2022-11-20T04:03:03;47.28;;;33.17;;
45252;SDS011;63171;50.520;30.486;2022-11-20T04:03:54;40.78;;;31.13;;
45252;SDS011;63171;50.520;30.486;2022-11-20T04:04:45;40.75;;;28.77;;
45252;SDS011;63171;50.520;30.486;2022-11-20T04:05:35;49.78;;;30.05;;
45252;SDS011;63171;50.520;30.486;2022-11-20T04:06:26;45.45;;;30.60;;
45252;SDS011;63171;50.520;30.486;2022-11-20T04:07:17;38.65;;;29.20;;
45252;SDS011;63171;50.520;30.486;2022-11-20T04:08:08;43.08;;;28.52;;
45252;SDS011;63171;50.520;30.486;2022-11-20T04:08:58;35.55;;;28.45;;
45252;SDS011;63171;50.520;30.486;2022-11-20T04:09:49;41.03;;;29.58;;
45252;SDS011;63171;50.520;30.486;2022-11-20T04:10:39;41.78;;;29.85;;
45252;SDS011;63171;50.520;30.486;2022-11-20T04:11:31;36.10;;;28.05;;
45252;SDS011;63171;50.520;30.486;2022-11-20T04:12:22;39.38;;;27.15;;
45252;SDS011;63171;50.520;30.486;2022-11-20T04:13:13;41.22;;;29.35;;
45252;SDS011;63171;50.520;30.486;2022-11-20T04:14:03;38.60;;;29.63;;
45252;SDS011;63171;50.520;30.486;2022-11-20T04:14:55;35.13;;;28.55;;
45252;SDS011;63171;50.520;30.486;2022-11-20T04:15:45;42.38;;;29.88;;
45252;SDS011;63171;50.520;30.486;2022-11-20T04:16:36;42.58;;;30.77;;
45252;SDS011;63171;50.520;30.486;2022-11-20T04:17:26;39.78;;;30.02;;
45252;SDS011;63171;50.520;30.486;2022-11-20T04:18:16;39.95;;;28.40;;
45252;SDS011;63171;50.520;30.486;2022-11-20T04:19:10;38.88;;;29.38;;
45252;SDS011;63171;50.520;30.486;2022-11-20T04:20:02;37.63;;;29.02;;
45252;SDS011;63171;50.520;30.486;2022-11-20T04:20:52;38.70;;;28.52;;
45252;SDS011;63171;50.520;30.486;2022-11-20T04:21:43;40.78;;;29.33;;
45252;SDS011;63171;50.520;30.486;2022-11-20T04:22:33;41.47;;;30.08;;
45252;SDS011;63171;50.520;30.486;2022-11-20T04:23:24;34.97;;;27.48;;
45252;SDS011;63171;50.520;30.486;2022-11-20T04:24:14;40.55;;;28.52;;
45252;SDS011;63171;50.520;30.486;2022-11-20T04:25:05;39.78;;;28.30;;
45252;SDS011;63171;50.520;30.486;2022-11-20T04:26:00;38.88;;;28.88;;
45252;SDS011;63171;50.520;30.486;2022-11-20T04:26:52;39.80;;;26.10;;
45252;SDS011;63171;50.520;30.486;2022-11-20T04:27:42;39.35;;;28.52;;
45252;SDS011;63171;50.520;30.486;2022-11-20T04:28:33;40.50;;;31.00;;
45252;SDS011;63171;50.520;30.486;2022-11-20T04:29:24;44.78;;;31.52;;
45252;SDS011;63171;50.520;30.486;2022-11-20T04:30:14;46.35;;;32.42;;
45252;SDS011;63171;50.520;30.486;2022-11-20T04:31:05;46.22;;;32.78;;
45252;SDS011;63171;50.520;30.486;2022-11-20T04:31:57;42.45;;;33.50;;
45252;SDS011;63171;50.520;30.486;2022-11-20T04:32:47;43.08;;;31.52;;
45252;SDS011;63171;50.520;30.486;2022-11-20T04:33:38;44.80;;;33.35;;
45252;SDS011;63171;50.520;30.486;2022-11-20T04:34:28;45.85;;;33.47;;
45252;SDS011;63171;50.520;30.486;2022-11-20T04:35:18;48.47;;;33.97;;
45252;SDS011;63171;50.520;30.486;2022-11-20T04:36:10;46.33;;;35.72;;
45252;SDS011;63171;50.520;30.486;2022-11-20T04:37:02;45.83;;;34.63;;
45252;SDS011;63171;50.520;30.486;2022-11-20T04:37:52;43.40;;;33.47;;
45252;SDS011;63171;50.520;30.486;2022-11-20T04:38:43;35.85;;;27.48;;
45252;SDS011;63171;50.520;30.486;2022-11-20T04:39:34;34.67;;;25.92;;
45252;SDS011;63171;50.520;30.486;2022-11-20T04:40:24;36.05;;;27.27;;
45252;SDS011;63171;50.520;30.486;2022-11-20T04:41:15;34.67;;;25.33;;
45252;SDS011;63171;50.520;30.486;2022-11-20T04:42:09;36.65;;;24.50;;
45252;SDS011;63171;50.520;30.486;2022-11-20T04:43:17;32.30;;;26.30;;
45252;SDS011;63171;50.520;30.486;2022-11-20T04:44:08;31.88;;;25.80;;
45252;SDS011;63171;50.520;30.486;2022-11-20T04:44:58;34.92;;;24.90;;
45252;SDS011;63171;50.520;30.486;2022-11-20T04:45:50;40.40;;;28.52;;
45252;SDS011;63171;50.520;30.486;2022-11-20T04:46:41;36.28;;;26.17;;
45252;SDS011;63171;50.520;30.486;2022-11-20T04:47:31;36.97;;;28.33;;
45252;SDS011;63171;50.520;30.486;2022-11-20T04:48:22;35.40;;;26.95;;
45252;SDS011;63171;50.520;30.486;2022-11-20T04:50:03;37.28;;;25.27;;
45252;SDS011;63171;50.520;30.486;2022-11-20T04:50:53;34.78;;;25.75;;
45252;SDS011;63171;50.520;30.486;2022-11-20T04:51:44;33.08;;;25.50;;
45252;SDS011;63171;50.520;30.486;2022-11-20T04:52:34;40.30;;;29.13;;
45252;SDS011;63171;50.520;30.486;2022-11-20T04:53:24;37.38;;;28.45;;
45252;SDS011;63171;50.520;30.486;2022-11-20T04:54:14;40.47;;;30.40;;
45252;SDS011;63171;50.520;30.486;2022-11-20T04:55:05;41.13;;;31.50;;
45252;SDS011;63171;50.520;30.486;2022-11-20T04:55:59;36.53;;;27.27;;
45252;SDS011;63171;50.520;30.486;2022-11-20T04:56:50;29.77;;;24.00;;
45252;SDS011;63171;50.520;30.486;2022-11-20T04:57:41;34.63;;;25.52;;
45252;SDS011;63171;50.520;30.486;2022-11-20T04:58:32;34.78;;;26.30;;
45252;SDS011;63171;50.520;30.486;2022-11-20T04:59:22;35.72;;;24.35;;
45252;SDS011;63171;50.520;30.486;2022-11-20T05:00:13;30.55;;;23.08;;
45252;SDS011;63171;50.520;30.486;2022-11-20T05:01:04;33.95;;;23.17;;
45252;SDS011;63171;50.520;30.486;2022-11-20T05:01:56;33.58;;;24.55;;
45252;SDS011;63171;50.520;30.486;2022-11-20T05:02:46;31.20;;;24.15;;
45252;SDS011;63171;50.520;30.486;2022-11-20T05:03:37;33.35;;;24.38;;
45252;SDS011;63171;50.520;30.486;2022-11-20T05:04:27;34.25;;;25.08;;
45252;SDS011;63171;50.520;30.486;2022-11-20T05:05:18;31.75;;;24.38;;
45252;SDS011;63171;50.520;30.486;2022-11-20T05:06:08;34.65;;;25.63;;
45252;SDS011;63171;50.520;30.486;2022-11-20T05:07:00;28.67;;;23.77;;
45252;SDS011;63171;50.520;30.486;2022-11-20T05:07:50;34.70;;;25.80;;
45252;SDS011;63171;50.520;30.486;2022-11-20T05:08:40;30.52;;;24.48;;
45252;SDS011;63171;50.520;30.486;2022-11-20T05:09:30;33.95;;;25.45;;
45252;SDS011;63171;50.520;30.486;2022-11-20T05:10:21;34.45;;;24.08;;
45252;SDS011;63171;50.520;30.486;2022-11-20T05:11:12;32.00;;;24.15;;
45252;SDS011;63171;50.520;30.486;2022-11-20T05:12:02;33.25;;;25.65;;
45252;SDS011;63171;50.520;30.486;2022-11-20T05:12:55;35.55;;;24.27;;
45252;SDS011;63171;50.520;30.486;2022-11-20T05:13:46;33.00;;;24.08;;
45252;SDS011;63171;50.520;30.486;2022-11-20T05:14:37;36.63;;;26.10;;
45252;SDS011;63171;50.520;30.486;2022-11-20T05:15:27;29.23;;;24.48;;
45252;SDS011;63171;50.520;30.486;2022-11-20T05:16:18;29.33;;;23.10;;
45252;SDS011;63171;50.520;30.486;2022-11-20T05:17:09;31.88;;;25.17;;
45252;SDS011;63171;50.520;30.486;2022-11-20T05:18:00;36.17;;;25.83;;
45252;SDS011;63171;50.520;30.486;2022-11-20T05:18:51;31.73;;;24.55;;
45252;SDS011;63171;50.520;30.486;2022-11-20T05:19:43;31.83;;;25.08;;
45252;SDS011;63171;50.520;30.486;2022-11-20T05:20:33;35.45;;;25.30;;
45252;SDS011;63171;50.520;30.486;2022-11-20T05:21:25;39.58;;;25.70;;
45252;SDS011;63171;50.520;30.486;2022-11-20T05:22:15;36.60;;;27.23;;
45252;SDS011;63171;50.520;30.486;2022-11-20T05:23:05;35.05;;;23.77;;
45252;SDS011;63171;50.520;30.486;2022-11-20T05:23:55;35.22;;;26.27;;
45252;SDS011;63171;50.520;30.486;2022-11-20T05:24:46;30.50;;;23.67;;
45252;SDS011;63171;50.520;30.486;2022-11-20T05:25:36;30.58;;;24.88;;
45252;SDS011;63171;50.520;30.486;2022-11-20T05:26:26;31.65;;;23.20;;
45252;SDS011;63171;50.520;30.486;2022-11-20T05:27:17;34.90;;;24.67;;
45252;SDS011;63171;50.520;30.486;2022-11-20T05:28:08;32.72;;;24.25;;
45252;SDS011;63171;50.520;30.486;2022-11-20T05:28:58;31.20;;;23.00;;
45252;SDS011;63171;50.520;30.486;2022-11-20T05:29:49;27.63;;;23.35;;
45252;SDS011;63171;50.520;30.486;2022-11-20T05:30:39;38.67;;;26.15;;
45252;SDS011;63171;50.520;30.486;2022-11-20T05:31:29;32.80;;;24.65;;
45252;SDS011;63171;50.520;30.486;2022-11-20T05:32:19;31.33;;;24.33;;
45252;SDS011;63171;50.520;30.486;2022-11-20T05:33:10;33.10;;;24.55;;
45252;SDS011;63171;50.520;30.486;2022-11-20T05:34:00;35.90;;;26.63;;
45252;SDS011;63171;50.520;30.486;2022-11-20T05:34:51;32.90;;;25.95;;
45252;SDS011;63171;50.520;30.486;2022-11-20T05:35:40;31.20;;;25.70;;
45252;SDS011;63171;50.520;30.486;2022-11-20T05:36:31;31.85;;;24.92;;
45252;SDS011;63171;50.520;30.486;2022-11-20T05:37:21;33.28;;;24.73;;
45252;SDS011;63171;50.520;30.486;2022-11-20T05:38:12;37.90;;;26.77;;
45252;SDS011;63171;50.520;30.486;2022-11-20T05:39:02;32.45;;;24.35;;
45252;SDS011;63171;50.520;30.486;2022-11-20T05:39:53;33.63;;;23.77;;
45252;SDS011;63171;50.520;30.486;2022-11-20T05:40:43;34.03;;;25.73;;
45252;SDS011;63171;50.520;30.486;2022-11-20T05:41:34;36.33;;;26.98;;
45252;SDS011;63171;50.520;30.486;2022-11-20T05:42:23;35.60;;;26.52;;
45252;SDS011;63171;50.520;30.486;2022-11-20T05:43:21;36.83;;;26.67;;
45252;SDS011;63171;50.520;30.486;2022-11-20T05:44:11;34.42;;;24.83;;
45252;SDS011;63171;50.520;30.486;2022-11-20T05:45:03;37.83;;;26.33;;
45252;SDS011;63171;50.520;30.486;2022-11-20T05:45:54;33.08;;;26.25;;
45252;SDS011;63171;50.520;30.486;2022-11-20T05:46:45;33.83;;;26.63;;
45252;SDS011;63171;50.520;30.486;2022-11-20T05:47:35;33.17;;;26.20;;
45252;SDS011;63171;50.520;30.486;2022-11-20T05:48:26;34.10;;;24.73;;
45252;SDS011;63171;50.520;30.486;2022-11-20T05:49:16;34.33;;;26.73;;
45252;SDS011;63171;50.520;30.486;2022-11-20T05:50:07;32.83;;;24.42;;
45252;SDS011;63171;50.520;30.486;2022-11-20T05:50:57;31.65;;;24.42;;
45252;SDS011;63171;50.520;30.486;2022-11-20T05:53:27;30.77;;;23.00;;
45252;SDS011;63171;50.520;30.486;2022-11-20T05:54:18;33.13;;;24.88;;
45252;SDS011;63171;50.520;30.486;2022-11-20T05:55:08;30.52;;;23.95;;
45252;SDS011;63171;50.520;30.486;2022-11-20T05:55:59;34.83;;;25.13;;
45252;SDS011;63171;50.520;30.486;2022-11-20T05:57:40;31.77;;;24.02;;
45252;SDS011;63171;50.520;30.486;2022-11-20T05:58:31;39.70;;;25.42;;
45252;SDS011;63171;50.520;30.486;2022-11-20T05:59:23;33.55;;;24.98;;
45252;SDS011;63171;50.520;30.486;2022-11-20T06:00:13;33.10;;;24.33;;
45252;SDS011;63171;50.520;30.486;2022-11-20T06:01:06;31.25;;;24.77;;
45252;SDS011;63171;50.520;30.486;2022-11-20T06:01:57;34.42;;;27.27;;
45252;SDS011;63171;50.520;30.486;2022-11-20T06:02:47;34.75;;;25.05;;
45252;SDS011;63171;50.520;30.486;2022-11-20T06:03:37;30.52;;;23.92;;